Time,TemperatureF,DewpointF,PressureIn,WindDirection,WindDirectionDegrees,WindSpeedMPH,WindSpeedGustMPH,Humidity,HourlyPrecipIn,Conditions,Clouds,dailyrainin,SoftwareType,DateUTC
2013-03-02 00:04:00,13.1,9.9,30.31,NW,316,7.9,9.4,86,0.00,,,0.00,CWS Microserver 1.4,2013-03-02 06:04:00,
2013-03-02 00:09:00,13.3,10.3,30.31,NW,318,7.1,9.4,87,0.00,,,0.00,CWS Microserver 1.4,2013-03-02 06:09:00,
2013-03-02 00:14:00,13.3,10.2,30.31,NW,304,6.7,9.4,87,0.00,,,0.00,CWS Microserver 1.4,2013-03-02 06:14:00,
2013-03-02 00:19:00,13.3,10.1,30.30,WNW,296,6.4,9.4,86,0.00,,,0.00,CWS Microserver 1.4,2013-03-02 06:19:00,
2013-03-02 00:24:00,13.1,10.0,30.30,NW,312,6.3,9.0,87,0.00,,,0.00,CWS Microserver 1.4,2013-03-02 06:24:00,
2013-03-02 00:29:00,13.0,9.9,30.30,NW,314,6.3,9.0,87,0.00,,,0.00,CWS Microserver 1.4,2013-03-02 06:29:00,
2013-03-02 00:34:00,13.0,9.9,30.30,WNW,299,5.8,8.9,87,0.00,,,0.00,CWS Microserver 1.4,2013-03-02 06:34:00,
2013-03-02 00:39:00,12.8,9.6,30.30,WNW,302,5.7,8.9,86,0.00,,,0.00,CWS Microserver 1.4,2013-03-02 06:39:00,
2013-03-02 00:44:00,12.4,9.2,30.30,WNW,294,4.8,7.9,86,0.00,,,0.00,CWS Microserver 1.4,2013-03-02 06:44:00,
2013-03-02 00:49:00,12.2,9.0,30.30,WNW,294,7.5,7.8,86,0.00,,,0.00,CWS Microserver 1.4,2013-03-02 06:49:00,
2013-03-02 00:54:00,11.7,8.4,30.30,WNW,286,7.2,7.8,86,0.00,,,0.00,CWS Microserver 1.4,2013-03-02 06:54:00,
2013-03-02 00:59:00,11.3,8.2,30.30,WNW,292,5.9,8.1,87,0.00,,,0.00,CWS Microserver 1.4,2013-03-02 06:59:00,
2013-03-02 01:04:00,11.2,8.0,30.30,WNW,299,5.9,8.1,86,0.00,,,0.00,CWS Microserver 1.4,2013-03-02 07:04:00,
2013-03-02 01:09:00,11.0,8.0,30.30,NW,321,3.9,7.8,87,0.00,,,0.00,CWS Microserver 1.4,2013-03-02 07:09:00,
2013-03-02 01:14:00,10.8,7.8,30.30,WNW,295,2.4,7.3,87,0.00,,,0.00,CWS Microserver 1.4,2013-03-02 07:14:00,
2013-03-02 01:19:00,10.6,7.8,30.30,WNW,296,3.5,6.5,88,0.00,,,0.00,CWS Microserver 1.4,2013-03-02 07:19:00,
2013-03-02 01:24:00,11.0,8.4,30.30,NW,305,5.2,7.4,89,0.00,,,0.00,CWS Microserver 1.4,2013-03-02 07:24:00,
2013-03-02 01:29:00,11.2,8.4,30.30,NW,306,5.9,7.4,88,0.00,,,0.00,CWS Microserver 1.4,2013-03-02 07:29:00,
2013-03-02 01:34:00,11.0,7.9,30.30,NW,304,4.2,7.8,87,0.00,,,0.00,CWS Microserver 1.4,2013-03-02 07:34:00,
2013-03-02 01:39:00,10.4,7.4,30.30,WNW,303,5.0,7.8,87,0.00,,,0.00,CWS Microserver 1.4,2013-03-02 07:39:00,
2013-03-02 01:44:00,10.6,7.9,30.30,NW,304,4.9,7.1,88,0.00,,,0.00,CWS Microserver 1.4,2013-03-02 07:44:00,
2013-03-02 01:49:00,11.0,8.4,30.30,WNW,284,7.2,8.0,88,0.00,,,0.00,CWS Microserver 1.4,2013-03-02 07:49:00,
2013-03-02 01:54:00,11.2,8.5,30.30,NW,309,4.8,8.1,88,0.00,,,0.00,CWS Microserver 1.4,2013-03-02 07:54:00,
2013-03-02 01:59:00,11.2,8.3,30.30,NW,320,5.8,8.5,87,0.00,,,0.00,CWS Microserver 1.4,2013-03-02 07:59:00,
2013-03-02 02:04:00,11.0,7.9,30.30,NW,306,4.3,8.5,87,0.00,,,0.00,CWS Microserver 1.4,2013-03-02 08:04:00,
2013-03-02 02:09:00,10.6,7.5,30.30,NW,313,4.9,7.4,87,0.00,,,0.00,CWS Microserver 1.4,2013-03-02 08:09:00,
2013-03-02 02:14:00,10.4,7.5,30.30,NW,311,6.9,7.0,87,0.00,,,0.00,CWS Microserver 1.4,2013-03-02 08:14:00,
2013-03-02 02:19:00,10.4,7.5,30.29,NNW,329,4.6,8.1,87,0.00,,,0.00,CWS Microserver 1.4,2013-03-02 08:19:00,
2013-03-02 02:24:00,10.4,7.5,30.29,NW,317,2.7,8.1,87,0.00,,,0.00,CWS Microserver 1.4,2013-03-02 08:24:00,
2013-03-02 02:29:00,10.3,7.5,30.29,NW,319,4.2,6.3,88,0.00,,,0.00,CWS Microserver 1.4,2013-03-02 08:29:00,
2013-03-02 02:34:00,10.1,7.2,30.29,WNW,285,3.9,6.2,87,0.00,,,0.00,CWS Microserver 1.4,2013-03-02 08:34:00,
2013-03-02 02:39:00,10.1,7.3,30.29,WNW,296,4.0,6.6,88,0.00,,,0.00,CWS Microserver 1.4,2013-03-02 08:39:00,
2013-03-02 02:44:00,9.9,7.2,30.29,WNW,286,4.1,6.6,88,0.00,,,0.00,CWS Microserver 1.4,2013-03-02 08:44:00,
2013-03-02 02:49:00,9.4,6.0,30.29,WNW,283,5.4,6.3,85,0.00,,,0.00,CWS Microserver 1.4,2013-03-02 08:49:00,
2013-03-02 02:54:00,8.5,5.4,30.29,West,278,5.0,5.9,86,0.00,,,0.00,CWS Microserver 1.4,2013-03-02 08:54:00,
2013-03-02 02:59:00,8.5,5.7,30.29,West,281,4.8,5.9,88,0.00,,,0.00,CWS Microserver 1.4,2013-03-02 08:59:00,
2013-03-02 03:04:00,8.6,6.0,30.29,West,281,4.7,6.1,88,0.00,,,0.00,CWS Microserver 1.4,2013-03-02 09:04:00,
2013-03-02 03:09:00,8.5,5.7,30.29,West,278,4.8,6.1,88,0.00,,,0.00,CWS Microserver 1.4,2013-03-02 09:09:00,
2013-03-02 03:14:00,8.3,5.5,30.29,WNW,287,5.1,5.8,88,0.00,,,0.00,CWS Microserver 1.4,2013-03-02 09:14:00,
2013-03-02 03:19:00,8.1,5.3,30.29,WNW,286,5.9,6.2,88,0.00,,,0.00,CWS Microserver 1.4,2013-03-02 09:19:00,
2013-03-02 03:24:00,8.1,5.5,30.29,WNW,291,4.9,6.2,88,0.00,,,0.00,CWS Microserver 1.4,2013-03-02 09:24:00,
2013-03-02 03:29:00,8.3,5.6,30.28,WNW,287,4.8,6.2,88,0.00,,,0.00,CWS Microserver 1.4,2013-03-02 09:29:00,
2013-03-02 03:34:00,7.9,5.1,30.28,WNW,282,4.8,5.7,88,0.00,,,0.00,CWS Microserver 1.4,2013-03-02 09:34:00,
2013-03-02 03:39:00,8.1,5.5,30.28,WNW,288,4.9,5.7,88,0.00,,,0.00,CWS Microserver 1.4,2013-03-02 09:39:00,
2013-03-02 03:44:00,8.3,5.8,30.28,WNW,289,4.6,5.6,89,0.00,,,0.00,CWS Microserver 1.4,2013-03-02 09:44:00,
2013-03-02 03:49:00,8.3,5.6,30.28,WNW,290,4.8,5.5,88,0.00,,,0.00,CWS Microserver 1.4,2013-03-02 09:49:00,
2013-03-02 03:54:00,8.1,5.2,30.29,WNW,291,3.8,5.7,87,0.00,,,0.00,CWS Microserver 1.4,2013-03-02 09:54:00,
2013-03-02 04:04:00,7.9,5.0,30.29,WNW,288,4.4,5.5,87,0.00,,,0.00,CWS Microserver 1.4,2013-03-02 10:04:00,
2013-03-02 04:09:00,7.9,5.1,30.29,WNW,293,4.5,5.5,88,0.00,,,0.00,CWS Microserver 1.4,2013-03-02 10:09:00,
2013-03-02 04:14:00,7.9,5.0,30.29,WNW,283,4.8,5.5,87,0.00,,,0.00,CWS Microserver 1.4,2013-03-02 10:14:00,
2013-03-02 04:19:00,7.6,4.5,30.29,WNW,283,4.5,5.8,86,0.00,,,0.00,CWS Microserver 1.4,2013-03-02 10:19:00,
2013-03-02 04:24:00,7.2,4.2,30.29,WNW,286,5.7,5.8,87,0.00,,,0.00,CWS Microserver 1.4,2013-03-02 10:24:00,
2013-03-02 04:29:00,7.2,4.2,30.29,WNW,286,5.1,6.1,87,0.00,,,0.00,CWS Microserver 1.4,2013-03-02 10:29:00,
2013-03-02 04:34:00,7.2,4.3,30.30,WNW,292,4.3,6.1,87,0.00,,,0.00,CWS Microserver 1.4,2013-03-02 10:34:00,
2013-03-02 04:39:00,7.4,4.5,30.29,WNW,295,4.5,5.3,87,0.00,,,0.00,CWS Microserver 1.4,2013-03-02 10:39:00,
2013-03-02 04:44:00,7.6,4.8,30.29,WNW,289,4.1,5.0,87,0.00,,,0.00,CWS Microserver 1.4,2013-03-02 10:44:00,
2013-03-02 04:49:00,7.6,4.6,30.29,WNW,291,3.7,4.8,87,0.00,,,0.00,CWS Microserver 1.4,2013-03-02 10:49:00,
2013-03-02 04:54:00,7.4,4.3,30.29,WNW,289,3.9,4.2,86,0.00,,,0.00,CWS Microserver 1.4,2013-03-02 10:54:00,
2013-03-02 04:59:00,7.4,4.5,30.29,WNW,292,4.5,4.5,87,0.00,,,0.00,CWS Microserver 1.4,2013-03-02 10:59:00,
2013-03-02 05:04:00,7.2,4.1,30.29,WNW,294,3.9,4.6,86,0.00,,,0.00,CWS Microserver 1.4,2013-03-02 11:04:00,
2013-03-02 05:09:00,7.2,4.2,30.29,WNW,298,3.7,4.6,87,0.00,,,0.00,CWS Microserver 1.4,2013-03-02 11:09:00,
2013-03-02 05:14:00,7.2,4.1,30.29,WNW,299,3.1,4.3,86,0.00,,,0.00,CWS Microserver 1.4,2013-03-02 11:14:00,
2013-03-02 05:19:00,7.4,4.3,30.29,WNW,293,3.1,4.0,86,0.00,,,0.00,CWS Microserver 1.4,2013-03-02 11:19:00,
2013-03-02 05:24:00,7.0,3.9,30.29,WNW,291,3.3,3.7,86,0.00,,,0.00,CWS Microserver 1.4,2013-03-02 11:24:00,
2013-03-02 05:29:00,6.8,3.6,30.28,WNW,287,2.6,3.7,86,0.00,,,0.00,CWS Microserver 1.4,2013-03-02 11:29:00,
2013-03-02 05:34:00,6.7,3.6,30.28,West,280,2.8,3.7,86,0.00,,,0.00,CWS Microserver 1.4,2013-03-02 11:34:00,
2013-03-02 05:39:00,6.8,3.8,30.28,West,279,3.0,3.5,87,0.00,,,0.00,CWS Microserver 1.4,2013-03-02 11:39:00,
2013-03-02 05:44:00,7.0,4.3,30.28,WNW,295,3.2,3.6,88,0.00,,,0.00,CWS Microserver 1.4,2013-03-02 11:44:00,
2013-03-02 05:49:00,6.8,3.6,30.28,WNW,289,3.0,3.9,86,0.00,,,0.00,CWS Microserver 1.4,2013-03-02 11:49:00,
2013-03-02 05:54:00,6.8,3.6,30.28,West,270,3.2,3.9,86,0.00,,,0.00,CWS Microserver 1.4,2013-03-02 11:54:00,
2013-03-02 05:59:00,6.7,3.4,30.29,SW,214,2.1,3.8,86,0.00,,,0.00,CWS Microserver 1.4,2013-03-02 11:59:00,
2013-03-02 06:04:00,6.5,3.3,30.29,SSW,210,2.6,3.2,86,0.00,,,0.00,CWS Microserver 1.4,2013-03-02 12:04:00,
2013-03-02 06:09:00,6.7,3.6,30.29,SW,216,2.8,3.2,86,0.00,,,0.00,CWS Microserver 1.4,2013-03-02 12:09:00,
2013-03-02 06:14:00,6.7,3.5,30.29,SW,214,2.3,3.2,86,0.00,,,0.00,CWS Microserver 1.4,2013-03-02 12:14:00,
2013-03-02 06:19:00,6.5,3.1,30.29,SW,215,2.0,3.1,85,0.00,,,0.00,CWS Microserver 1.4,2013-03-02 12:19:00,
2013-03-02 06:24:00,6.5,3.3,30.29,SSW,210,1.9,2.4,86,0.00,,,0.00,CWS Microserver 1.4,2013-03-02 12:24:00,
2013-03-02 06:29:00,6.3,3.0,30.29,SW,227,1.8,2.2,86,0.00,,,0.00,CWS Microserver 1.4,2013-03-02 12:29:00,
2013-03-02 06:34:00,6.3,2.9,30.29,SW,218,2.0,2.1,85,0.00,,,0.00,CWS Microserver 1.4,2013-03-02 12:34:00,
2013-03-02 06:39:00,6.5,3.3,30.29,SW,215,1.6,2.1,86,0.00,,,0.00,CWS Microserver 1.4,2013-03-02 12:39:00,
2013-03-02 06:49:00,6.5,3.1,30.29,SW,217,1.9,2.3,85,0.00,,,0.00,CWS Microserver 1.4,2013-03-02 12:49:00,
2013-03-02 06:54:00,6.5,3.0,30.29,SW,214,1.7,2.3,85,0.00,,,0.00,CWS Microserver 1.4,2013-03-02 12:54:00,
2013-03-02 06:59:00,6.3,2.9,30.29,WSW,248,1.3,2.3,85,0.00,,,0.00,CWS Microserver 1.4,2013-03-02 12:59:00,
2013-03-02 07:04:00,6.3,2.8,30.29,SW,216,1.0,2.3,85,0.00,,,0.00,CWS Microserver 1.4,2013-03-02 13:04:00,
2013-03-02 07:09:00,6.3,2.7,30.29,SW,214,1.1,1.8,84,0.00,,,0.00,CWS Microserver 1.4,2013-03-02 13:09:00,
2013-03-02 07:14:00,6.1,2.4,30.29,SW,216,1.2,1.6,84,0.00,,,0.00,CWS Microserver 1.4,2013-03-02 13:14:00,
2013-03-02 07:19:00,5.9,2.1,30.29,SW,218,1.3,1.5,84,0.00,,,0.00,CWS Microserver 1.4,2013-03-02 13:19:00,
2013-03-02 07:24:00,5.8,2.0,30.29,SW,222,1.3,1.9,83,0.00,,,0.00,CWS Microserver 1.4,2013-03-02 13:24:00,
2013-03-02 07:29:00,5.8,2.0,30.29,SW,231,1.2,1.9,84,0.00,,,0.00,CWS Microserver 1.4,2013-03-02 13:29:00,
2013-03-02 07:34:00,5.9,2.2,30.29,SW,230,0.8,1.8,84,0.00,,,0.00,CWS Microserver 1.4,2013-03-02 13:34:00,
2013-03-02 07:39:00,6.5,2.9,30.29,SW,228,0.9,2.7,84,0.00,,,0.00,CWS Microserver 1.4,2013-03-02 13:39:00,
2013-03-02 07:44:00,6.8,3.3,30.29,SW,226,0.9,2.7,85,0.00,,,0.00,CWS Microserver 1.4,2013-03-02 13:44:00,
2013-03-02 07:49:00,7.4,3.6,30.29,West,276,1.1,1.8,84,0.00,,,0.00,CWS Microserver 1.4,2013-03-02 13:49:00,
2013-03-02 07:54:00,7.2,3.3,30.29,WSW,244,1.1,1.4,83,0.00,,,0.00,CWS Microserver 1.4,2013-03-02 13:54:00,
2013-03-02 07:59:00,7.4,3.6,30.29,NW,316,0.8,1.4,84,0.00,,,0.00,CWS Microserver 1.4,2013-03-02 13:59:00,
2013-03-02 08:04:00,7.9,4.3,30.29,SW,220,1.0,1.4,84,0.00,,,0.00,CWS Microserver 1.4,2013-03-02 14:04:00,
2013-03-02 08:09:00,8.5,4.8,30.29,WNW,282,0.8,2.2,84,0.00,,,0.00,CWS Microserver 1.4,2013-03-02 14:09:00,
2013-03-02 08:14:00,8.6,4.7,30.29,WSW,242,0.9,2.2,83,0.00,,,0.00,CWS Microserver 1.4,2013-03-02 14:14:00,
2013-03-02 08:19:00,8.8,4.9,30.29,SW,221,1.3,1.6,83,0.00,,,0.00,CWS Microserver 1.4,2013-03-02 14:19:00,
2013-03-02 08:24:00,9.0,5.1,30.29,WSW,237,0.9,1.6,83,0.00,,,0.00,CWS Microserver 1.4,2013-03-02 14:24:00,
2013-03-02 08:29:00,9.4,5.7,30.29,NW,306,0.7,1.5,84,0.00,,,0.00,CWS Microserver 1.4,2013-03-02 14:29:00,
2013-03-02 08:34:00,9.7,6.1,30.29,WSW,240,0.8,1.3,84,0.00,,,0.00,CWS Microserver 1.4,2013-03-02 14:34:00,
2013-03-02 08:39:00,10.1,6.4,30.29,West,274,0.9,1.6,84,0.00,,,0.00,CWS Microserver 1.4,2013-03-02 14:39:00,
2013-03-02 08:44:00,10.4,6.6,30.29,SW,235,0.9,1.6,84,0.00,,,0.00,CWS Microserver 1.4,2013-03-02 14:44:00,
2013-03-02 08:49:00,10.6,6.9,30.29,WNW,291,0.6,1.6,84,0.00,,,0.00,CWS Microserver 1.4,2013-03-02 14:49:00,
2013-03-02 08:54:00,11.0,7.2,30.29,West,277,0.8,1.5,84,0.00,,,0.00,CWS Microserver 1.4,2013-03-02 14:54:00,
2013-03-02 08:59:00,11.2,7.4,30.29,WNW,290,0.8,1.5,84,0.00,,,0.00,CWS Microserver 1.4,2013-03-02 14:59:00,
2013-03-02 09:04:00,11.7,7.9,30.29,West,264,0.7,1.2,84,0.00,,,0.00,CWS Microserver 1.4,2013-03-02 15:04:00,
2013-03-02 09:09:00,12.1,8.3,30.29,WNW,286,0.6,1.0,84,0.00,,,0.00,CWS Microserver 1.4,2013-03-02 15:09:00,
2013-03-02 09:14:00,13.0,9.5,30.28,NW,319,0.8,1.1,85,0.00,,,0.00,CWS Microserver 1.4,2013-03-02 15:14:00,
2013-03-02 09:19:00,14.4,11.5,30.28,WSW,251,0.7,1.5,87,0.00,,,0.00,CWS Microserver 1.4,2013-03-02 15:19:00,
2013-03-02 09:24:00,15.8,12.0,30.28,West,271,0.7,2.1,84,0.00,,,0.00,CWS Microserver 1.4,2013-03-02 15:24:00,
2013-03-02 09:29:00,14.0,9.0,30.28,ENE,62,0.7,2.1,80,0.00,,,0.00,CWS Microserver 1.4,2013-03-02 15:29:00,
2013-03-02 09:34:00,13.0,8.4,30.28,NE,56,0.6,2.3,81,0.00,,,0.00,CWS Microserver 1.4,2013-03-02 15:34:00,
2013-03-02 09:39:00,12.8,8.4,30.28,NNE,22,0.8,2.3,82,0.00,,,0.00,CWS Microserver 1.4,2013-03-02 15:39:00,
2013-03-02 09:44:00,13.0,8.7,30.28,East,96,2.0,3.4,82,0.00,,,0.00,CWS Microserver 1.4,2013-03-02 15:44:00,
2013-03-02 09:49:00,13.3,8.8,30.28,ESE,113,1.2,4.2,81,0.00,,,0.00,CWS Microserver 1.4,2013-03-02 15:49:00,
2013-03-02 09:54:00,14.4,9.6,30.28,East,82,0.9,4.2,80,0.00,,,0.00,CWS Microserver 1.4,2013-03-02 15:54:00,
2013-03-02 09:59:00,14.4,9.2,30.27,East,92,2.6,3.9,79,0.00,,,0.00,CWS Microserver 1.4,2013-03-02 15:59:00,
2013-03-02 10:04:00,15.1,10.0,30.27,East,82,1.5,3.9,79,0.00,,,0.00,CWS Microserver 1.4,2013-03-02 16:04:00,
2013-03-02 10:09:00,15.5,10.0,30.27,East,80,2.5,3.9,78,0.00,,,0.00,CWS Microserver 1.4,2013-03-02 16:09:00,
2013-03-02 10:14:00,15.7,9.7,30.27,SE,131,2.2,4.2,76,0.00,,,0.00,CWS Microserver 1.4,2013-03-02 16:14:00,
2013-03-02 10:19:00,16.2,9.8,30.27,SSW,203,2.6,4.2,75,0.00,,,0.00,CWS Microserver 1.4,2013-03-02 16:19:00,
2013-03-02 10:24:00,16.4,9.9,30.27,SSE,155,3.1,4.4,75,0.00,,,0.00,CWS Microserver 1.4,2013-03-02 16:24:00,
2013-03-02 10:29:00,16.2,10.1,30.27,South,179,3.2,4.5,76,0.00,,,0.00,CWS Microserver 1.4,2013-03-02 16:29:00,
2013-03-02 10:34:00,16.0,9.8,30.27,SSE,147,3.4,4.5,76,0.00,,,0.00,CWS Microserver 1.4,2013-03-02 16:34:00,
2013-03-02 10:39:00,16.6,10.4,30.27,South,174,3.6,4.3,76,0.00,,,0.00,CWS Microserver 1.4,2013-03-02 16:39:00,
2013-03-02 10:44:00,16.4,10.8,30.27,SSW,200,1.9,4.4,78,0.00,,,0.00,CWS Microserver 1.4,2013-03-02 16:44:00,
2013-03-02 10:49:00,17.1,11.0,30.28,SSE,155,1.7,4.4,76,0.00,,,0.00,CWS Microserver 1.4,2013-03-02 16:49:00,
2013-03-02 10:54:00,17.5,11.4,30.27,SSW,204,2.6,4.9,76,0.00,,,0.00,CWS Microserver 1.4,2013-03-02 16:54:00,
2013-03-02 10:59:00,17.8,11.5,30.27,SSW,203,2.3,4.9,76,0.00,,,0.00,CWS Microserver 1.4,2013-03-02 16:59:00,
2013-03-02 11:04:00,18.5,11.6,30.27,SSE,164,1.2,4.2,74,0.00,,,0.00,CWS Microserver 1.4,2013-03-02 17:04:00,
2013-03-02 11:09:00,18.9,11.5,30.27,South,181,1.4,3.9,72,0.00,,,0.00,CWS Microserver 1.4,2013-03-02 17:09:00,
2013-03-02 11:14:00,20.2,12.0,30.27,WSW,242,0.7,3.6,70,0.00,,,0.00,CWS Microserver 1.4,2013-03-02 17:14:00,
2013-03-02 11:19:00,20.9,12.7,30.27,SSW,201,3.3,3.3,70,0.00,,,0.00,CWS Microserver 1.4,2013-03-02 17:19:00,
2013-03-02 11:24:00,20.2,12.3,30.26,SSW,203,2.2,3.8,70,0.00,,,0.00,CWS Microserver 1.4,2013-03-02 17:24:00,
2013-03-02 11:29:00,20.3,11.8,30.26,SSE,163,3.4,4.7,69,0.00,,,0.00,CWS Microserver 1.4,2013-03-02 17:29:00,
2013-03-02 11:34:00,19.4,11.8,30.26,SSW,203,1.9,5.3,71,0.00,,,0.00,CWS Microserver 1.4,2013-03-02 17:34:00,
2013-03-02 11:39:00,20.2,12.2,30.26,South,172,1.4,5.3,70,0.00,,,0.00,CWS Microserver 1.4,2013-03-02 17:39:00,
2013-03-02 11:44:00,20.7,12.6,30.27,South,174,2.9,4.9,70,0.00,,,0.00,CWS Microserver 1.4,2013-03-02 17:44:00,
2013-03-02 11:49:00,21.4,12.4,30.27,SSE,152,3.9,4.9,67,0.00,,,0.00,CWS Microserver 1.4,2013-03-02 17:49:00,
2013-03-02 11:54:00,21.1,12.4,30.26,SE,142,3.1,4.5,68,0.00,,,0.00,CWS Microserver 1.4,2013-03-02 17:54:00,
2013-03-02 11:59:00,20.5,12.2,30.26,SSE,152,2.1,5.4,69,0.00,,,0.00,CWS Microserver 1.4,2013-03-02 17:59:00,
2013-03-02 12:04:00,21.1,12.8,30.26,SSE,157,1.4,5.4,69,0.00,,,0.00,CWS Microserver 1.4,2013-03-02 18:04:00,
2013-03-02 12:09:00,20.7,12.8,30.25,SE,144,4.5,6.0,70,0.00,,,0.00,CWS Microserver 1.4,2013-03-02 18:09:00,
2013-03-02 12:14:00,21.1,12.8,30.25,ESE,119,3.6,6.0,69,0.00,,,0.00,CWS Microserver 1.4,2013-03-02 18:14:00,
2013-03-02 12:19:00,21.2,13.0,30.25,East,88,3.4,5.5,70,0.00,,,0.00,CWS Microserver 1.4,2013-03-02 18:19:00,
2013-03-02 12:24:00,20.7,12.7,30.25,East,94,4.4,6.6,70,0.00,,,0.00,CWS Microserver 1.4,2013-03-02 18:24:00,
2013-03-02 12:29:00,21.1,12.8,30.25,SE,124,4.7,6.6,69,0.00,,,0.00,CWS Microserver 1.4,2013-03-02 18:29:00,
2013-03-02 12:34:00,21.1,13.2,30.24,SSE,147,5.1,6.4,71,0.00,,,0.00,CWS Microserver 1.4,2013-03-02 18:34:00,
2013-03-02 12:39:00,21.8,13.3,30.24,ESE,109,2.8,6.4,69,0.00,,,0.00,CWS Microserver 1.4,2013-03-02 18:39:00,
2013-03-02 12:44:00,22.7,13.4,30.24,SSE,153,4.6,5.3,67,0.00,,,0.00,CWS Microserver 1.4,2013-03-02 18:44:00,
2013-03-02 12:49:00,22.3,13.2,30.24,SE,145,3.3,5.3,67,0.00,,,0.00,CWS Microserver 1.4,2013-03-02 18:49:00,
2013-03-02 12:54:00,22.9,14.1,30.24,SSE,163,2.7,5.1,68,0.00,,,0.00,CWS Microserver 1.4,2013-03-02 18:54:00,
2013-03-02 12:59:00,22.9,13.4,30.24,South,189,2.4,7.6,66,0.00,,,0.00,CWS Microserver 1.4,2013-03-02 18:59:00,
2013-03-02 13:04:00,23.2,13.5,30.23,SSE,153,5.1,7.6,66,0.00,,,0.00,CWS Microserver 1.4,2013-03-02 19:04:00,
2013-03-02 13:09:00,22.3,13.5,30.23,SE,128,0.7,6.4,68,0.00,,,0.00,CWS Microserver 1.4,2013-03-02 19:09:00,
2013-03-02 13:14:00,23.8,14.3,30.23,SSE,147,3.9,6.4,66,0.00,,,0.00,CWS Microserver 1.4,2013-03-02 19:14:00,
2013-03-02 13:19:00,23.8,14.3,30.23,SSE,168,3.2,7.4,66,0.00,,,0.00,CWS Microserver 1.4,2013-03-02 19:19:00,
2013-03-02 13:24:00,23.9,14.1,30.22,SSE,165,4.1,7.4,65,0.00,,,0.00,CWS Microserver 1.4,2013-03-02 19:24:00,
2013-03-02 13:29:00,23.6,13.1,30.22,SSE,158,4.4,6.8,63,0.00,,,0.00,CWS Microserver 1.4,2013-03-02 19:29:00,
2013-03-02 13:34:00,23.9,13.5,30.22,South,189,5.3,6.8,63,0.00,,,0.00,CWS Microserver 1.4,2013-03-02 19:34:00,
2013-03-02 13:39:00,23.8,13.4,30.22,SSW,198,2.6,6.7,64,0.00,,,0.00,CWS Microserver 1.4,2013-03-02 19:39:00,
2013-03-02 13:44:00,24.3,13.2,30.22,South,190,3.8,6.7,62,0.00,,,0.00,CWS Microserver 1.4,2013-03-02 19:44:00,
2013-03-02 13:49:00,24.1,12.7,30.21,SSW,194,4.6,7.2,61,0.00,,,0.00,CWS Microserver 1.4,2013-03-02 19:49:00,
2013-03-02 13:54:00,24.3,12.9,30.21,South,176,5.7,7.2,61,0.00,,,0.00,CWS Microserver 1.4,2013-03-02 19:54:00,
2013-03-02 13:59:00,24.1,11.9,30.21,South,191,3.1,6.2,59,0.00,,,0.00,CWS Microserver 1.4,2013-03-02 19:59:00,
2013-03-02 14:04:00,25.0,12.0,30.21,SSW,194,4.2,6.2,57,0.00,,,0.00,CWS Microserver 1.4,2013-03-02 20:04:00,
2013-03-02 14:09:00,24.8,12.0,30.21,SW,217,2.3,6.3,57,0.00,,,0.00,CWS Microserver 1.4,2013-03-02 20:09:00,
2013-03-02 14:14:00,25.2,12.3,30.21,SSW,201,2.4,6.3,57,0.00,,,0.00,CWS Microserver 1.4,2013-03-02 20:14:00,
2013-03-02 14:19:00,25.0,12.2,30.20,SW,219,5.0,6.8,57,0.00,,,0.00,CWS Microserver 1.4,2013-03-02 20:19:00,
2013-03-02 14:24:00,24.8,11.5,30.20,South,184,5.8,7.4,56,0.00,,,0.00,CWS Microserver 1.4,2013-03-02 20:24:00,
2013-03-02 14:29:00,24.7,12.2,30.20,SSW,194,4.2,7.4,58,0.00,,,0.00,CWS Microserver 1.4,2013-03-02 20:29:00,
2013-03-02 14:34:00,24.7,12.0,30.20,South,179,4.2,6.4,57,0.00,,,0.00,CWS Microserver 1.4,2013-03-02 20:34:00,
2013-03-02 14:39:00,25.0,11.7,30.20,South,191,3.8,5.9,56,0.00,,,0.00,CWS Microserver 1.4,2013-03-02 20:39:00,
2013-03-02 14:44:00,24.8,12.1,30.20,SSE,158,3.3,6.4,58,0.00,,,0.00,CWS Microserver 1.4,2013-03-02 20:44:00,
2013-03-02 14:49:00,25.0,12.4,30.19,South,171,3.9,6.4,58,0.00,,,0.00,CWS Microserver 1.4,2013-03-02 20:49:00,
2013-03-02 14:54:00,25.0,13.8,30.19,South,183,4.8,6.6,62,0.00,,,0.00,CWS Microserver 1.4,2013-03-02 20:54:00,
2013-03-02 14:59:00,25.4,13.4,30.19,South,181,6.1,6.6,60,0.00,,,0.00,CWS Microserver 1.4,2013-03-02 20:59:00,
2013-03-02 15:04:00,25.0,14.8,30.20,SSE,151,6.1,6.8,64,0.00,,,0.00,CWS Microserver 1.4,2013-03-02 21:04:00,
2013-03-02 15:09:00,24.5,14.2,30.19,SSE,160,4.3,7.2,64,0.00,,,0.00,CWS Microserver 1.4,2013-03-02 21:09:00,
2013-03-02 15:14:00,25.2,15.1,30.19,SSE,148,3.8,7.4,65,0.00,,,0.00,CWS Microserver 1.4,2013-03-02 21:14:00,
2013-03-02 15:19:00,24.5,13.3,30.19,SSE,151,6.6,8.2,61,0.00,,,0.00,CWS Microserver 1.4,2013-03-02 21:19:00,
2013-03-02 15:24:00,24.3,14.0,30.19,SSE,148,8.4,8.8,64,0.00,,,0.00,CWS Microserver 1.4,2013-03-02 21:24:00,
2013-03-02 15:34:00,24.5,14.0,30.18,SSE,165,6.3,9.1,63,0.00,,,0.00,CWS Microserver 1.4,2013-03-02 21:34:00,
2013-03-02 15:39:00,24.8,13.1,30.18,SSE,157,7.0,8.0,60,0.00,,,0.00,CWS Microserver 1.4,2013-03-02 21:39:00,
2013-03-02 15:44:00,24.7,13.7,30.18,SSE,151,6.2,8.7,62,0.00,,,0.00,CWS Microserver 1.4,2013-03-02 21:44:00,
2013-03-02 15:49:00,24.7,14.2,30.18,SSE,155,5.1,8.7,63,0.00,,,0.00,CWS Microserver 1.4,2013-03-02 21:49:00,
2013-03-02 15:54:00,24.7,14.3,30.18,SE,133,6.1,8.3,64,0.00,,,0.00,CWS Microserver 1.4,2013-03-02 21:54:00,
2013-03-02 15:59:00,24.5,13.5,30.18,SSE,155,8.4,8.6,62,0.00,,,0.00,CWS Microserver 1.4,2013-03-02 21:59:00,
2013-03-02 16:04:00,24.5,12.9,30.18,SSE,147,4.6,8.6,60,0.00,,,0.00,CWS Microserver 1.4,2013-03-02 22:04:00,
2013-03-02 16:09:00,24.3,13.2,30.18,SE,142,5.3,8.5,62,0.00,,,0.00,CWS Microserver 1.4,2013-03-02 22:09:00,
2013-03-02 16:14:00,24.3,12.9,30.17,SSE,156,6.2,8.7,61,0.00,,,0.00,CWS Microserver 1.4,2013-03-02 22:14:00,
2013-03-02 16:19:00,24.5,13.6,30.17,SE,143,6.3,9.5,62,0.00,,,0.00,CWS Microserver 1.4,2013-03-02 22:19:00,
2013-03-02 16:24:00,24.5,12.3,30.17,SSE,151,6.9,9.5,59,0.00,,,0.00,CWS Microserver 1.4,2013-03-02 22:24:00,
2013-03-02 16:34:00,24.5,11.6,30.17,SSE,152,7.6,8.7,57,0.00,,,0.00,CWS Microserver 1.4,2013-03-02 22:34:00,
2013-03-02 16:39:00,24.5,12.6,30.17,SSE,154,6.6,9.3,60,0.00,,,0.00,CWS Microserver 1.4,2013-03-02 22:39:00,
2013-03-02 16:44:00,24.5,11.6,30.18,SSE,153,5.8,9.3,57,0.00,,,0.00,CWS Microserver 1.4,2013-03-02 22:44:00,
2013-03-02 16:49:00,24.5,13.3,30.18,SE,136,4.5,7.6,61,0.00,,,0.00,CWS Microserver 1.4,2013-03-02 22:49:00,
2013-03-02 16:59:00,24.5,14.9,30.17,SSE,152,7.3,8.3,66,0.00,,,0.00,CWS Microserver 1.4,2013-03-02 22:59:00,
2013-03-02 17:04:00,24.5,15.2,30.17,SSE,161,7.5,8.8,67,0.00,,,0.00,CWS Microserver 1.4,2013-03-02 23:04:00,
2013-03-02 17:09:00,24.5,15.5,30.17,SE,145,7.0,9.5,68,0.00,,,0.00,CWS Microserver 1.4,2013-03-02 23:09:00,
2013-03-02 17:14:00,24.5,15.2,30.17,SE,146,7.5,9.5,67,0.00,,,0.00,CWS Microserver 1.4,2013-03-02 23:14:00,
2013-03-02 17:19:00,24.5,15.8,30.17,SSE,150,6.9,9.4,69,0.00,,,0.00,CWS Microserver 1.4,2013-03-02 23:19:00,
2013-03-02 17:24:00,24.5,16.1,30.17,SSE,154,5.5,9.3,69,0.00,,,0.00,CWS Microserver 1.4,2013-03-02 23:24:00,
2013-03-02 17:29:00,24.5,16.7,30.17,SSE,152,9.8,10.0,71,0.00,,,0.00,CWS Microserver 1.4,2013-03-02 23:29:00,
2013-03-02 17:34:00,24.3,16.1,30.17,SSE,151,8.7,10.9,70,0.00,,,0.00,CWS Microserver 1.4,2013-03-02 23:34:00,
2013-03-02 17:39:00,24.5,16.7,30.16,SSE,156,7.4,11.0,71,0.00,,,0.00,CWS Microserver 1.4,2013-03-02 23:39:00,
2013-03-02 17:44:00,24.3,16.5,30.16,SSE,153,7.9,11.0,71,0.00,,,0.00,CWS Microserver 1.4,2013-03-02 23:44:00,
2013-03-02 17:49:00,24.3,16.1,30.16,SSE,158,6.9,10.9,70,0.00,,,0.00,CWS Microserver 1.4,2013-03-02 23:49:00,
2013-03-02 17:54:00,24.3,15.5,30.16,SSE,164,8.9,10.0,68,0.00,,,0.00,CWS Microserver 1.4,2013-03-02 23:54:00,
2013-03-02 17:59:00,24.3,16.3,30.16,SSE,163,9.0,10.4,71,0.00,,,0.00,CWS Microserver 1.4,2013-03-02 23:59:00,
2013-03-02 18:04:00,24.3,16.1,30.16,SSE,149,9.3,10.9,70,0.00,,,0.00,CWS Microserver 1.4,2013-03-03 00:04:00,
2013-03-02 18:14:00,24.3,17.0,30.16,SE,140,9.2,10.2,73,0.00,,,0.00,CWS Microserver 1.4,2013-03-03 00:14:00,
2013-03-02 18:19:00,24.3,17.5,30.16,SE,146,7.8,10.8,75,0.00,,,0.00,CWS Microserver 1.4,2013-03-03 00:19:00,
2013-03-02 18:24:00,24.3,16.8,30.16,SE,130,4.9,10.8,72,0.00,,,0.00,CWS Microserver 1.4,2013-03-03 00:24:00,
2013-03-02 18:34:00,24.3,16.8,30.16,SSE,154,7.8,9.7,72,0.00,,,0.00,CWS Microserver 1.4,2013-03-03 00:34:00,
2013-03-02 18:39:00,24.1,16.4,30.16,SE,146,8.0,9.7,72,0.00,,,0.00,CWS Microserver 1.4,2013-03-03 00:39:00,
2013-03-02 18:44:00,24.1,16.8,30.16,SSE,156,7.2,9.5,73,0.00,,,0.00,CWS Microserver 1.4,2013-03-03 00:44:00,
2013-03-02 18:49:00,24.1,16.6,30.16,SSE,161,7.8,9.5,72,0.00,,,0.00,CWS Microserver 1.4,2013-03-03 00:49:00,
2013-03-02 18:54:00,24.1,17.2,30.16,SE,143,7.1,9.1,74,0.00,,,0.00,CWS Microserver 1.4,2013-03-03 00:54:00,
2013-03-02 18:59:00,24.1,17.4,30.16,SSE,149,7.1,8.8,75,0.00,,,0.00,CWS Microserver 1.4,2013-03-03 00:59:00,
2013-03-02 19:04:00,24.1,17.8,30.16,SSE,152,8.5,8.8,76,0.00,,,0.00,CWS Microserver 1.4,2013-03-03 01:04:00,
2013-03-02 19:09:00,24.1,17.5,30.16,SSE,152,8.0,9.4,75,0.00,,,0.00,CWS Microserver 1.4,2013-03-03 01:09:00,
2013-03-02 19:19:00,24.1,17.5,30.16,SSE,163,7.7,11.0,75,0.00,,,0.00,CWS Microserver 1.4,2013-03-03 01:19:00,
2013-03-02 19:24:00,24.1,17.9,30.15,SSE,152,8.5,10.7,76,0.00,,,0.00,CWS Microserver 1.4,2013-03-03 01:24:00,
2013-03-02 19:29:00,23.9,17.7,30.15,SSE,151,7.0,11.1,77,0.00,,,0.00,CWS Microserver 1.4,2013-03-03 01:29:00,
2013-03-02 19:39:00,23.9,18.0,30.15,SSE,156,8.9,10.5,77,0.00,,,0.00,CWS Microserver 1.4,2013-03-03 01:39:00,
2013-03-02 19:44:00,23.9,17.8,30.15,SSE,160,7.5,10.7,77,0.00,,,0.00,CWS Microserver 1.4,2013-03-03 01:44:00,
2013-03-02 19:49:00,23.9,17.3,30.15,SSE,166,9.7,10.7,75,0.00,,,0.00,CWS Microserver 1.4,2013-03-03 01:49:00,
2013-03-02 19:54:00,23.9,17.3,30.15,SSE,153,8.5,10.9,75,0.00,,,0.00,CWS Microserver 1.4,2013-03-03 01:54:00,
2013-03-02 19:59:00,23.9,17.7,30.15,SSE,154,7.6,12.1,77,0.00,,,0.00,CWS Microserver 1.4,2013-03-03 01:59:00,
2013-03-02 20:04:00,23.9,17.4,30.15,SSE,158,7.1,12.1,75,0.00,,,0.00,CWS Microserver 1.4,2013-03-03 02:04:00,
2013-03-02 20:14:00,23.9,18.0,30.15,SE,145,6.5,8.9,78,0.00,,,0.00,CWS Microserver 1.4,2013-03-03 02:14:00,
2013-03-02 20:19:00,23.9,18.0,30.15,SSE,158,7.2,10.3,77,0.00,,,0.00,CWS Microserver 1.4,2013-03-03 02:19:00,
2013-03-02 20:24:00,23.9,17.7,30.15,SSE,151,9.4,11.4,77,0.00,,,0.00,CWS Microserver 1.4,2013-03-03 02:24:00,
2013-03-02 20:29:00,23.9,18.0,30.15,SSE,151,8.4,11.7,77,0.00,,,0.00,CWS Microserver 1.4,2013-03-03 02:29:00,
2013-03-02 20:34:00,23.9,17.9,30.15,SSE,157,9.6,12.3,77,0.00,,,0.00,CWS Microserver 1.4,2013-03-03 02:34:00,
2013-03-02 20:39:00,23.9,17.9,30.15,SSE,158,9.5,12.3,77,0.00,,,0.00,CWS Microserver 1.4,2013-03-03 02:39:00,
2013-03-02 20:44:00,24.1,18.5,30.15,SSE,155,6.3,11.3,79,0.00,,,0.00,CWS Microserver 1.4,2013-03-03 02:44:00,
2013-03-02 20:49:00,24.1,18.6,30.16,SE,142,3.4,10.4,79,0.00,,,0.00,CWS Microserver 1.4,2013-03-03 02:49:00,
2013-03-02 20:54:00,24.1,18.3,30.15,SSE,154,7.2,8.1,78,0.00,,,0.00,CWS Microserver 1.4,2013-03-03 02:54:00,
2013-03-02 20:59:00,24.1,18.2,30.15,SSE,157,6.7,8.9,78,0.00,,,0.00,CWS Microserver 1.4,2013-03-03 02:59:00,
2013-03-02 21:04:00,24.1,18.7,30.15,SSE,147,7.4,9.1,79,0.00,,,0.00,CWS Microserver 1.4,2013-03-03 03:04:00,
2013-03-02 21:09:00,23.9,18.2,30.15,SSE,152,5.3,9.5,78,0.00,,,0.00,CWS Microserver 1.4,2013-03-03 03:09:00,
2013-03-02 21:14:00,23.9,18.5,30.15,SSE,154,7.9,9.9,79,0.00,,,0.00,CWS Microserver 1.4,2013-03-03 03:14:00,
2013-03-02 21:19:00,23.9,18.4,30.14,SSE,151,8.5,11.0,79,0.00,,,0.00,CWS Microserver 1.4,2013-03-03 03:19:00,
2013-03-02 21:24:00,23.9,18.4,30.14,SSE,158,7.1,11.0,79,0.00,,,0.00,CWS Microserver 1.4,2013-03-03 03:24:00,
2013-03-02 21:29:00,23.9,18.6,30.14,SSE,158,7.1,10.4,79,0.00,,,0.00,CWS Microserver 1.4,2013-03-03 03:29:00,
2013-03-02 21:34:00,23.9,18.8,30.14,SSE,152,6.6,10.4,80,0.00,,,0.00,CWS Microserver 1.4,2013-03-03 03:34:00,
2013-03-02 21:39:00,23.9,18.3,30.14,SSE,148,9.7,10.9,78,0.00,,,0.00,CWS Microserver 1.4,2013-03-03 03:39:00,
2013-03-02 21:44:00,23.9,18.5,30.14,SSE,149,8.6,10.9,79,0.00,,,0.00,CWS Microserver 1.4,2013-03-03 03:44:00,
2013-03-02 21:49:00,23.9,18.7,30.14,SSE,149,6.5,10.8,80,0.00,,,0.00,CWS Microserver 1.4,2013-03-03 03:49:00,
2013-03-02 21:54:00,23.8,18.7,30.14,SSE,153,10.0,12.7,80,0.00,,,0.00,CWS Microserver 1.4,2013-03-03 03:54:00,
2013-03-02 21:59:00,23.8,18.8,30.13,SSE,160,12.3,12.7,80,0.00,,,0.00,CWS Microserver 1.4,2013-03-03 03:59:00,
2013-03-02 22:04:00,23.8,18.9,30.13,SSE,151,9.0,13.9,81,0.00,,,0.00,CWS Microserver 1.4,2013-03-03 04:04:00,
2013-03-02 22:09:00,23.6,18.7,30.13,SSE,165,9.5,13.9,81,0.00,,,0.00,CWS Microserver 1.4,2013-03-03 04:09:00,
2013-03-02 22:14:00,23.6,19.1,30.13,SE,143,7.2,13.8,82,0.00,,,0.00,CWS Microserver 1.4,2013-03-03 04:14:00,
2013-03-02 22:19:00,23.6,18.9,30.13,SE,131,7.4,11.0,82,0.00,,,0.00,CWS Microserver 1.4,2013-03-03 04:19:00,
2013-03-02 22:24:00,23.6,19.1,30.13,SSE,148,7.1,11.0,82,0.00,,,0.00,CWS Microserver 1.4,2013-03-03 04:24:00,
2013-03-02 22:29:00,23.8,19.3,30.13,SSE,147,9.3,10.7,82,0.00,,,0.00,CWS Microserver 1.4,2013-03-03 04:29:00,
2013-03-02 22:34:00,23.8,19.6,30.12,SSE,160,12.2,12.3,83,0.00,,,0.00,CWS Microserver 1.4,2013-03-03 04:34:00,
2013-03-02 22:39:00,23.8,19.4,30.13,SE,141,8.0,12.3,83,0.00,,,0.00,CWS Microserver 1.4,2013-03-03 04:39:00,
2013-03-02 22:44:00,23.8,19.3,30.12,SSE,148,9.7,12.3,82,0.00,,,0.00,CWS Microserver 1.4,2013-03-03 04:44:00,
2013-03-02 22:49:00,23.8,19.4,30.12,SSE,152,10.2,10.9,83,0.00,,,0.00,CWS Microserver 1.4,2013-03-03 04:49:00,
2013-03-02 22:54:00,23.6,19.0,30.12,SSE,153,9.0,11.2,82,0.00,,,0.00,CWS Microserver 1.4,2013-03-03 04:54:00,
2013-03-02 22:59:00,23.6,19.2,30.12,SSE,149,9.2,11.2,83,0.00,,,0.00,CWS Microserver 1.4,2013-03-03 04:59:00,
2013-03-02 23:04:00,23.4,19.1,30.11,SSE,149,7.3,11.2,83,0.00,,,0.00,CWS Microserver 1.4,2013-03-03 05:04:00,
2013-03-02 23:09:00,23.4,19.0,30.11,SSE,152,5.8,12.2,82,0.00,,,0.00,CWS Microserver 1.4,2013-03-03 05:09:00,
2013-03-02 23:14:00,23.4,18.9,30.11,SSE,150,10.1,12.2,82,0.00,,,0.00,CWS Microserver 1.4,2013-03-03 05:14:00,
2013-03-02 23:19:00,23.2,18.6,30.11,SSE,147,10.1,11.9,82,0.00,,,0.00,CWS Microserver 1.4,2013-03-03 05:19:00,
2013-03-02 23:24:00,23.2,18.6,30.10,SSE,151,12.4,12.8,82,0.00,,,0.00,CWS Microserver 1.4,2013-03-03 05:24:00,
2013-03-02 23:29:00,23.2,18.7,30.10,SSE,160,10.3,13.6,82,0.00,,,0.00,CWS Microserver 1.4,2013-03-03 05:29:00,
2013-03-02 23:34:00,23.2,18.7,30.10,SSE,166,13.7,15.0,82,0.00,,,0.00,CWS Microserver 1.4,2013-03-03 05:34:00,
2013-03-02 23:39:00,23.2,18.6,30.09,SSE,163,12.6,16.2,82,0.00,,,0.00,CWS Microserver 1.4,2013-03-03 05:39:00,
2013-03-02 23:44:00,23.0,18.6,30.09,South,176,7.7,16.2,83,0.00,,,0.00,CWS Microserver 1.4,2013-03-03 05:44:00,
2013-03-02 23:49:00,23.0,18.6,30.09,SSE,168,11.6,15.3,83,0.00,,,0.00,CWS Microserver 1.4,2013-03-03 05:49:00,
2013-03-02 23:54:00,23.0,18.6,30.08,SSE,166,14.2,14.5,83,0.00,,,0.00,CWS Microserver 1.4,2013-03-03 05:54:00,
2013-03-02 23:59:00,23.0,18.6,30.08,SSE,162,13.0,14.2,83,0.00,,,0.00,CWS Microserver 1.4,2013-03-03 05:59:00,